createdAt,value
2023-01-19T00:00:52.548Z,20.03
2023-01-19T00:03:21.767Z,19.70
2023-01-19T00:05:50.333Z,20.27
2023-01-19T00:08:19.066Z,20.03
2023-01-19T00:10:48.242Z,19.77
2023-01-19T00:13:16.949Z,19.80
2023-01-19T00:15:46.847Z,18.50
2023-01-19T00:18:15.368Z,18.87
2023-01-19T00:20:43.824Z,19.90
2023-01-19T00:23:12.261Z,20.50
2023-01-19T00:25:42.770Z,19.53
2023-01-19T00:28:11.705Z,19.20
2023-01-19T00:30:40.420Z,18.27
2023-01-19T00:33:10.730Z,18.93
2023-01-19T00:35:39.189Z,19.13
2023-01-19T00:38:07.677Z,19.83
2023-01-19T00:40:36.146Z,19.10
2023-01-19T00:43:05.178Z,20.07
2023-01-19T00:45:33.729Z,21.67
2023-01-19T00:48:02.278Z,22.80
2023-01-19T00:50:33.161Z,21.57
2023-01-19T00:53:02.354Z,23.20
2023-01-19T00:55:31.128Z,22.40
2023-01-19T00:57:59.749Z,22.37
2023-01-19T01:00:28.190Z,23.83
2023-01-19T01:02:56.848Z,20.97
2023-01-19T01:05:25.323Z,21.13
2023-01-19T01:07:55.155Z,22.67
2023-01-19T01:10:24.511Z,22.93
2023-01-19T01:12:57.333Z,22.20
2023-01-19T01:15:27.915Z,23.03
2023-01-19T01:17:56.438Z,22.37
2023-01-19T01:20:25.473Z,21.77
2023-01-19T01:22:55.872Z,22.57
2023-01-19T01:25:25.412Z,21.90
2023-01-19T01:27:54.305Z,21.90
2023-01-19T01:30:23.195Z,21.20
2023-01-19T01:32:51.680Z,21.03
2023-01-19T01:35:20.156Z,20.60
2023-01-19T01:37:48.649Z,22.07
2023-01-19T01:40:19.207Z,22.50
2023-01-19T01:42:47.725Z,21.27
2023-01-19T01:45:31.092Z,21.63
2023-01-19T01:48:02.068Z,20.87
2023-01-19T01:50:31.877Z,22.13
2023-01-19T01:53:06.684Z,21.80
2023-01-19T01:55:39.576Z,20.87
2023-01-19T01:58:10.391Z,21.10
2023-01-19T02:00:53.753Z,21.63
2023-01-19T02:03:23.521Z,21.20
2023-01-19T02:05:52.254Z,20.23
2023-01-19T02:08:39.900Z,19.07
2023-01-19T02:11:27.980Z,19.33
2023-01-19T02:13:56.459Z,17.70
2023-01-19T02:16:25.122Z,18.10
2023-01-19T02:18:53.672Z,17.17
2023-01-19T02:21:23.988Z,16.90
2023-01-19T02:23:55.006Z,16.90
2023-01-19T02:26:24.786Z,16.33
2023-01-19T02:28:57.539Z,16.37
2023-01-19T02:31:26.610Z,15.27
2023-01-19T02:33:55.174Z,15.13
2023-01-19T02:36:27.249Z,15.70
2023-01-19T02:38:58.021Z,16.93
2023-01-19T02:41:28.184Z,14.47
2023-01-19T02:43:57.872Z,13.63
2023-01-19T02:46:26.573Z,13.10
2023-01-19T02:48:55.086Z,12.40
2023-01-19T02:51:25.812Z,11.13
2023-01-19T02:54:07.290Z,10.33
2023-01-19T02:56:47.246Z,9.90
2023-01-19T02:59:23.519Z,10.20
2023-01-19T03:02:00.954Z,11.37
2023-01-19T03:04:31.696Z,10.63
2023-01-19T03:07:02.727Z,9.73
2023-01-19T03:09:36.080Z,9.83
2023-01-19T03:12:15.442Z,10.63
2023-01-19T03:14:46.048Z,11.00
2023-01-19T03:17:14.901Z,9.93
2023-01-19T03:19:44.034Z,9.73
2023-01-19T03:22:14.507Z,9.40
2023-01-19T03:24:45.096Z,9.93
2023-01-19T03:27:14.575Z,8.23
2023-01-19T03:29:45.052Z,9.00
2023-01-19T03:32:16.576Z,8.40
2023-01-19T03:34:45.337Z,8.60
2023-01-19T03:37:15.411Z,8.00
2023-01-19T03:39:45.381Z,7.23
2023-01-19T03:42:16.071Z,6.70
2023-01-19T03:44:45.643Z,6.20
2023-01-19T03:47:15.640Z,5.30
2023-01-19T03:49:45.494Z,3.73
2023-01-19T03:52:14.235Z,3.60
2023-01-19T03:54:43.484Z,2.90
2023-01-19T03:57:13.355Z,2.30
2023-01-19T03:59:41.846Z,2.00
2023-01-19T04:02:10.563Z,1.90
2023-01-19T04:04:39.910Z,1.60
2023-01-19T04:07:10.544Z,1.60
2023-01-19T04:09:38.981Z,1.40
2023-01-19T04:12:07.597Z,1.50
2023-01-19T04:14:37.649Z,1.43
2023-01-19T04:17:06.087Z,1.40
2023-01-19T04:19:34.552Z,1.43
2023-01-19T04:22:03.123Z,1.40
2023-01-19T04:24:31.549Z,1.50
2023-01-19T04:26:59.998Z,1.40
2023-01-19T04:29:28.447Z,1.40
2023-01-19T04:31:58.269Z,1.70
2023-01-19T04:34:26.772Z,1.67
2023-01-19T04:36:56.044Z,1.50
2023-01-19T04:39:24.515Z,1.50
2023-01-19T04:41:53.026Z,1.47
2023-01-19T04:44:21.462Z,1.57
2023-01-19T04:46:51.566Z,1.50
2023-01-19T04:49:21.431Z,1.60
2023-01-19T04:51:49.945Z,1.70
2023-01-19T04:54:18.441Z,1.80
2023-01-19T04:56:47.008Z,1.60
2023-01-19T04:59:15.894Z,1.60
2023-01-19T05:01:44.408Z,1.60
2023-01-19T05:04:12.903Z,1.80
2023-01-19T05:06:42.786Z,1.80
2023-01-19T05:09:13.243Z,1.60
2023-01-19T05:11:41.743Z,1.80
2023-01-19T05:14:10.218Z,1.70
2023-01-19T05:16:38.707Z,1.60
2023-01-19T05:19:07.132Z,1.90
2023-01-19T05:21:35.565Z,1.90
2023-01-19T05:24:05.548Z,1.87
2023-01-19T05:26:34.011Z,1.90
2023-01-19T05:29:02.434Z,1.80
2023-01-19T05:31:30.915Z,1.77
2023-01-19T05:33:59.418Z,1.80
2023-01-19T05:36:28.233Z,2.00
2023-01-19T05:38:56.897Z,1.63
2023-01-19T05:41:26.706Z,1.70
2023-01-19T05:43:55.350Z,1.60
2023-01-19T05:46:24.427Z,1.60
2023-01-19T05:48:53.171Z,1.70
2023-01-19T05:51:21.695Z,1.70
2023-01-19T05:53:50.152Z,1.60
2023-01-19T05:56:18.605Z,1.70
2023-01-19T05:58:48.464Z,1.90
2023-01-19T06:01:16.967Z,1.90
2023-01-19T06:03:45.522Z,1.90
2023-01-19T06:06:15.372Z,2.20
2023-01-19T06:08:43.859Z,2.20
2023-01-19T06:11:12.486Z,2.20
2023-01-19T06:13:42.143Z,2.10
2023-01-19T06:16:12.172Z,2.23
2023-01-19T06:18:40.734Z,2.00
2023-01-19T06:21:12.370Z,1.93
2023-01-19T06:23:41.196Z,2.10
2023-01-19T06:26:09.640Z,1.90
2023-01-19T06:28:38.102Z,1.97
2023-01-19T06:31:06.680Z,1.87
2023-01-19T06:33:36.582Z,2.20
2023-01-19T06:36:05.171Z,2.10
2023-01-19T06:38:33.785Z,2.10
2023-01-19T06:41:03.317Z,2.30
2023-01-19T06:43:31.787Z,2.13
2023-01-19T06:46:01.262Z,2.00
2023-01-19T06:48:30.191Z,2.20
2023-01-19T06:51:00.913Z,2.30
2023-01-19T06:53:30.271Z,2.27
2023-01-19T06:56:02.894Z,2.10
2023-01-19T06:58:34.873Z,2.00
2023-01-19T07:01:03.854Z,2.10
2023-01-19T07:03:32.549Z,2.00
2023-01-19T07:06:02.920Z,2.00
2023-01-19T07:08:31.809Z,2.13
2023-01-19T07:11:26.362Z,2.00
2023-01-19T07:13:51.808Z,2.10
2023-01-19T07:16:20.612Z,2.00
2023-01-19T07:18:50.074Z,2.00
2023-01-19T07:21:20.290Z,2.00
2023-01-19T07:23:50.017Z,2.03
2023-01-19T07:26:21.931Z,2.00
2023-01-19T07:28:50.769Z,2.10
2023-01-19T07:31:19.571Z,1.90
2023-01-19T07:33:48.531Z,2.30
2023-01-19T07:36:17.156Z,2.43
2023-01-19T07:38:47.023Z,2.20
2023-01-19T07:41:15.513Z,1.97
2023-01-19T07:43:43.948Z,2.20
2023-01-19T07:46:12.499Z,2.20
2023-01-19T07:48:41.038Z,1.93
2023-01-19T07:51:13.013Z,2.07
2023-01-19T07:53:42.056Z,1.80
2023-01-19T07:56:12.247Z,1.90
2023-01-19T07:58:40.699Z,1.83
2023-01-19T08:01:09.874Z,1.80
2023-01-19T08:03:38.417Z,1.90
2023-01-19T08:06:07.328Z,2.03
2023-01-19T08:08:36.276Z,1.70
2023-01-19T08:11:04.742Z,1.70
2023-01-19T08:13:34.578Z,1.80
2023-01-19T08:16:03.108Z,1.60
2023-01-19T08:18:31.586Z,1.67
2023-01-19T08:21:00.557Z,1.60
2023-01-19T08:23:29.239Z,1.73
2023-01-19T08:25:57.663Z,1.60
2023-01-19T08:28:26.156Z,1.50
2023-01-19T08:30:56.194Z,1.57
2023-01-19T08:33:25.472Z,1.70
2023-01-19T08:35:54.679Z,1.53
2023-01-19T08:38:23.153Z,1.60
2023-01-19T08:40:51.732Z,1.50
2023-01-19T08:43:20.204Z,1.60
2023-01-19T08:45:52.393Z,1.60
2023-01-19T08:48:23.593Z,1.73
2023-01-19T08:50:53.032Z,1.70
2023-01-19T08:53:23.690Z,1.80
2023-01-19T08:55:52.577Z,1.70
2023-01-19T08:58:21.026Z,1.80
2023-01-19T09:00:52.547Z,1.70
2023-01-19T09:03:22.814Z,1.80
2023-01-19T09:05:51.595Z,1.73
2023-01-19T09:08:20.168Z,1.70
2023-01-19T09:10:49.278Z,1.73
2023-01-19T09:13:17.791Z,1.90
2023-01-19T09:15:46.647Z,1.97
2023-01-19T09:18:15.953Z,2.27
2023-01-19T09:20:46.658Z,1.90
2023-01-19T09:23:15.645Z,2.00
2023-01-19T09:25:45.108Z,1.90
2023-01-19T09:28:14.723Z,2.00
2023-01-19T09:30:44.475Z,1.93
2023-01-19T09:33:14.731Z,2.10
2023-01-19T09:35:43.511Z,2.00
2023-01-19T09:38:15.326Z,2.10
2023-01-19T09:40:44.255Z,1.87
2023-01-19T09:43:16.667Z,1.83
2023-01-19T09:45:47.610Z,1.80
2023-01-19T09:48:22.539Z,2.20
2023-01-19T09:50:51.703Z,2.03
2023-01-19T09:53:23.659Z,2.30
2023-01-19T09:55:52.251Z,2.50
2023-01-19T09:58:21.045Z,2.33
2023-01-19T10:00:54.054Z,2.30
2023-01-19T10:03:22.908Z,2.33
2023-01-19T10:05:54.583Z,2.00
2023-01-19T10:08:28.570Z,2.10
2023-01-19T10:10:58.902Z,1.90
2023-01-19T10:13:31.871Z,1.77
2023-01-19T10:16:06.019Z,1.57
2023-01-19T10:18:45.903Z,1.60
2023-01-19T10:21:16.425Z,1.70
2023-01-19T10:23:47.525Z,1.63
2023-01-19T10:26:18.073Z,1.63
2023-01-19T10:28:47.712Z,1.60
2023-01-19T10:31:17.198Z,1.40
2023-01-19T10:33:45.806Z,1.50
2023-01-19T10:36:18.805Z,1.70
2023-01-19T10:38:49.096Z,1.70
2023-01-19T10:41:20.417Z,1.40
2023-01-19T10:43:51.020Z,1.70
2023-01-19T10:46:22.485Z,1.60
2023-01-19T10:48:52.416Z,1.63
2023-01-19T10:51:20.894Z,1.80
2023-01-19T10:54:01.653Z,1.70
2023-01-19T10:56:32.876Z,1.70
2023-01-19T10:59:03.273Z,1.60
2023-01-19T11:01:36.008Z,1.60
2023-01-19T11:04:21.435Z,2.07
2023-01-19T11:06:50.027Z,1.80
2023-01-19T11:09:20.844Z,1.93
2023-01-19T11:11:50.945Z,1.70
2023-01-19T11:14:21.398Z,1.93
2023-01-19T11:16:51.554Z,1.80
2023-01-19T11:19:26.798Z,2.10
2023-01-19T11:21:55.883Z,2.03
2023-01-19T11:24:25.738Z,1.60
2023-01-19T11:26:57.626Z,2.00
2023-01-19T11:29:27.416Z,1.90
2023-01-19T11:31:57.624Z,1.80
2023-01-19T11:34:28.292Z,1.70
2023-01-19T11:37:00.759Z,1.60
2023-01-19T11:39:31.742Z,1.60
2023-01-19T11:42:02.602Z,1.80
2023-01-19T11:44:32.741Z,1.70
2023-01-19T11:47:02.127Z,1.70
2023-01-19T11:49:34.219Z,1.87
2023-01-19T11:52:06.585Z,1.80
2023-01-19T11:54:37.994Z,1.80
2023-01-19T11:57:12.499Z,1.80
2023-01-19T11:59:41.163Z,1.57
2023-01-19T12:02:16.027Z,1.70
2023-01-19T12:04:45.171Z,1.90
2023-01-19T12:07:14.398Z,1.80
2023-01-19T12:09:47.045Z,2.00
2023-01-19T12:12:19.254Z,2.00
2023-01-19T12:14:52.365Z,1.93
2023-01-19T12:17:26.073Z,1.90
2023-01-19T12:19:57.184Z,1.83
2023-01-19T12:22:28.569Z,1.70
2023-01-19T12:25:00.928Z,1.90
2023-01-19T12:27:39.811Z,2.10
2023-01-19T12:30:13.423Z,2.00
2023-01-19T12:32:43.163Z,2.30
2023-01-19T12:35:26.481Z,2.10
2023-01-19T12:37:54.951Z,2.10
2023-01-19T12:40:31.495Z,2.30
2023-01-19T12:43:01.368Z,2.20
2023-01-19T12:45:34.156Z,2.50
2023-01-19T12:48:03.097Z,2.70
2023-01-19T12:50:34.283Z,2.40
2023-01-19T12:53:03.716Z,2.00
2023-01-19T12:55:34.896Z,2.10
2023-01-19T12:58:05.081Z,2.00
2023-01-19T13:00:35.186Z,2.40
2023-01-19T13:03:04.573Z,2.23
2023-01-19T13:06:00.119Z,2.30
2023-01-19T13:08:31.265Z,2.20
2023-01-19T13:11:26.079Z,2.10
2023-01-19T13:14:28.815Z,2.00
2023-01-19T13:17:24.053Z,2.00
2023-01-19T13:19:57.100Z,2.17
2023-01-19T13:22:44.222Z,2.23
2023-01-19T13:25:14.226Z,2.40
2023-01-19T13:27:42.790Z,2.30
2023-01-19T13:30:17.720Z,2.13
2023-01-19T13:32:46.259Z,2.17
2023-01-19T13:35:19.183Z,2.03
2023-01-19T13:37:47.887Z,2.20
2023-01-19T13:40:19.650Z,2.27
2023-01-19T13:42:48.444Z,2.07
2023-01-19T13:45:28.133Z,2.10
2023-01-19T13:47:57.327Z,2.07
2023-01-19T13:50:28.167Z,2.10
2023-01-19T13:52:58.852Z,2.07
2023-01-19T13:55:28.488Z,2.30
2023-01-19T13:57:57.105Z,2.40
2023-01-19T14:00:26.637Z,2.40
2023-01-19T14:03:00.157Z,2.40
2023-01-19T14:05:31.233Z,2.43
2023-01-19T14:08:03.355Z,2.40
2023-01-19T14:10:32.414Z,2.60
2023-01-19T14:13:01.251Z,2.50
2023-01-19T14:15:30.048Z,2.30
2023-01-19T14:18:19.403Z,2.53
2023-01-19T14:20:55.089Z,2.40
2023-01-19T14:23:54.537Z,2.30
2023-01-19T14:26:43.092Z,2.67
2023-01-19T14:29:18.663Z,2.60
2023-01-19T14:31:47.896Z,2.50
2023-01-19T14:34:34.069Z,2.63
2023-01-19T14:37:04.692Z,2.57
2023-01-19T14:39:34.579Z,2.50
2023-01-19T14:42:04.512Z,2.50
2023-01-19T14:44:34.143Z,2.70
2023-01-19T14:47:03.298Z,2.67
2023-01-19T14:49:33.637Z,2.60
2023-01-19T14:52:04.725Z,2.63
2023-01-19T14:54:34.955Z,2.80
2023-01-19T14:57:03.469Z,2.80
2023-01-19T14:59:32.033Z,2.77
2023-01-19T15:02:01.420Z,2.50
2023-01-19T15:04:29.972Z,2.53
2023-01-19T15:06:58.445Z,2.67
2023-01-19T15:09:28.791Z,2.70
2023-01-19T15:11:57.259Z,2.50
2023-01-19T15:14:26.120Z,2.63
2023-01-19T15:16:54.585Z,2.23
2023-01-19T15:19:23.081Z,2.30
2023-01-19T15:21:51.606Z,2.47
2023-01-19T15:24:20.047Z,2.60
2023-01-19T15:26:49.905Z,2.50
2023-01-19T15:29:24.594Z,1.90
2023-01-19T15:31:53.601Z,2.60
2023-01-19T15:34:22.106Z,2.50
2023-01-19T15:36:50.616Z,2.50
2023-01-19T15:39:19.070Z,2.50
2023-01-19T15:41:47.546Z,2.67
2023-01-19T15:44:17.432Z,2.50
2023-01-19T15:46:45.971Z,2.20
2023-01-19T15:49:14.552Z,2.47
2023-01-19T15:51:43.342Z,2.77
2023-01-19T15:54:15.088Z,2.30
2023-01-19T15:56:43.592Z,2.40
2023-01-19T15:59:12.103Z,2.53
2023-01-19T16:01:42.739Z,2.40
2023-01-19T16:04:12.121Z,2.20
2023-01-19T16:06:40.635Z,2.53
2023-01-19T16:09:09.075Z,2.30
2023-01-19T16:11:38.363Z,3.00
2023-01-19T16:14:06.881Z,2.63
2023-01-19T16:16:35.398Z,2.40
2023-01-19T16:19:05.439Z,2.83
2023-01-19T16:21:33.936Z,2.50
2023-01-19T16:24:02.430Z,2.20
2023-01-19T16:26:32.564Z,2.60
2023-01-19T16:29:01.966Z,2.37
2023-01-19T16:31:30.472Z,2.60
2023-01-19T16:33:58.979Z,2.60
2023-01-19T16:36:30.055Z,2.90
2023-01-19T16:39:00.631Z,2.90
2023-01-19T16:41:29.220Z,2.90
2023-01-19T16:43:58.776Z,2.80
2023-01-19T16:46:28.354Z,2.70
2023-01-19T16:49:00.805Z,2.70
2023-01-19T16:51:30.879Z,2.77
2023-01-19T16:53:59.372Z,2.60
2023-01-19T16:56:27.953Z,2.60
2023-01-19T16:58:56.376Z,2.77
2023-01-19T17:01:25.485Z,2.50
2023-01-19T17:03:54.136Z,2.70
2023-01-19T17:06:23.796Z,2.50
2023-01-19T17:08:54.505Z,2.47
2023-01-19T17:11:23.723Z,2.80
2023-01-19T17:13:54.493Z,2.87
2023-01-19T17:16:23.136Z,2.67
2023-01-19T17:18:51.835Z,2.73
2023-01-19T17:21:20.373Z,3.40
2023-01-19T17:23:50.484Z,3.20
2023-01-19T17:26:20.342Z,3.30
2023-01-19T17:28:48.981Z,3.00
2023-01-19T17:31:19.144Z,3.30
2023-01-19T17:33:48.183Z,3.10
2023-01-19T17:36:17.342Z,3.27
2023-01-19T17:38:45.830Z,3.17
2023-01-19T17:41:15.154Z,3.23
2023-01-19T17:43:45.331Z,3.00
2023-01-19T17:46:14.486Z,2.97
2023-01-19T17:48:43.750Z,2.80
2023-01-19T17:51:13.470Z,2.30
2023-01-19T17:53:42.788Z,2.20
2023-01-19T17:56:12.247Z,2.23
2023-01-19T17:58:40.889Z,2.00
2023-01-19T18:01:12.037Z,2.10
2023-01-19T18:03:40.842Z,1.90
2023-01-19T18:06:09.987Z,2.10
2023-01-19T18:08:40.231Z,2.20
2023-01-19T18:11:09.172Z,2.30
2023-01-19T18:13:38.042Z,2.10
2023-01-19T18:16:07.541Z,2.60
2023-01-19T18:18:37.794Z,2.60
2023-01-19T18:21:07.112Z,2.30
2023-01-19T18:23:35.672Z,2.47
2023-01-19T18:26:04.926Z,2.00
2023-01-19T18:28:33.833Z,1.90
2023-01-19T18:31:02.523Z,1.80
2023-01-19T18:33:34.051Z,1.80
2023-01-19T18:36:04.096Z,1.70
2023-01-19T18:38:32.570Z,1.70
2023-01-19T18:41:04.289Z,1.77
2023-01-19T18:43:32.992Z,2.23
2023-01-19T18:46:01.536Z,2.20
2023-01-19T18:48:30.025Z,2.13
2023-01-19T18:51:03.285Z,2.30
2023-01-19T18:53:33.737Z,2.67
2023-01-19T18:56:03.353Z,2.40
2023-01-19T18:58:32.580Z,2.60
2023-01-19T19:01:01.853Z,2.20
2023-01-19T19:03:30.650Z,2.13
2023-01-19T19:05:59.130Z,2.23
2023-01-19T19:08:27.728Z,2.13
2023-01-19T19:10:57.562Z,2.20
2023-01-19T19:13:25.967Z,2.33
2023-01-19T19:15:57.033Z,2.10
2023-01-19T19:18:25.527Z,1.93
2023-01-19T19:20:54.000Z,2.00
2023-01-19T19:23:22.490Z,2.10
2023-01-19T19:25:51.045Z,2.00
2023-01-19T19:28:20.923Z,2.13
2023-01-19T19:30:52.644Z,2.40
2023-01-19T19:33:21.141Z,2.13
2023-01-19T19:35:49.599Z,2.40
2023-01-19T19:38:18.080Z,2.10
2023-01-19T19:40:46.568Z,2.07
2023-01-19T19:43:15.031Z,2.07
2023-01-19T19:45:44.922Z,1.80
2023-01-19T19:48:13.357Z,1.80
2023-01-19T19:50:41.960Z,2.30
2023-01-19T19:53:10.428Z,2.03
2023-01-19T19:55:38.867Z,2.60
2023-01-19T19:58:07.303Z,2.47
2023-01-19T20:00:35.837Z,2.50
2023-01-19T20:03:06.000Z,2.50
2023-01-19T20:05:37.882Z,2.23
2023-01-19T20:08:06.409Z,2.20
2023-01-19T20:10:35.382Z,2.60
2023-01-19T20:13:04.190Z,3.07
2023-01-19T20:15:32.708Z,3.23
2023-01-19T20:18:01.150Z,2.87
2023-01-19T20:20:31.060Z,3.37
2023-01-19T20:22:59.999Z,3.30
2023-01-19T20:25:28.658Z,3.50
2023-01-19T20:27:59.221Z,3.33
2023-01-19T20:30:28.309Z,3.17
2023-01-19T20:32:56.906Z,3.23
2023-01-19T20:35:25.519Z,3.60
2023-01-19T20:37:55.361Z,3.43
2023-01-19T20:40:23.824Z,3.70
2023-01-19T20:42:52.322Z,3.27
2023-01-19T20:45:20.947Z,3.50
2023-01-19T20:47:49.473Z,3.40
2023-01-19T20:50:18.052Z,3.80
2023-01-19T20:52:46.677Z,3.77
2023-01-19T20:55:16.554Z,4.00
2023-01-19T20:57:45.037Z,4.13
2023-01-19T21:00:13.962Z,4.03
2023-01-19T21:02:42.456Z,3.90
2023-01-19T21:05:11.674Z,3.93
2023-01-19T21:07:40.432Z,4.33
2023-01-19T21:10:08.916Z,3.63
2023-01-19T21:12:38.778Z,4.77
2023-01-19T21:15:07.812Z,4.37
2023-01-19T21:17:36.236Z,4.33
2023-01-19T21:20:04.879Z,4.17
2023-01-19T21:22:33.333Z,4.47
2023-01-19T21:25:01.769Z,4.77
2023-01-19T21:27:30.246Z,4.60
2023-01-19T21:30:02.315Z,4.50
2023-01-19T21:32:30.795Z,4.60
2023-01-19T21:34:59.308Z,4.53
2023-01-19T21:37:27.784Z,4.93
2023-01-19T21:39:56.361Z,3.97
2023-01-19T21:42:24.928Z,5.27
2023-01-19T21:44:53.406Z,4.80
2023-01-19T21:47:23.312Z,4.43
2023-01-19T21:49:51.783Z,4.37
2023-01-19T21:52:20.312Z,4.20
2023-01-19T21:55:04.019Z,3.93
2023-01-19T21:57:32.525Z,3.97
2023-01-19T22:00:00.965Z,4.37
2023-01-19T22:02:38.659Z,4.10
2023-01-19T22:05:08.058Z,4.30
2023-01-19T22:07:36.551Z,3.83
2023-01-19T22:10:05.626Z,4.50
2023-01-19T22:12:34.080Z,4.63
2023-01-19T22:15:02.550Z,3.90
2023-01-19T22:17:32.435Z,4.83
2023-01-19T22:20:00.900Z,4.40
2023-01-19T22:22:29.444Z,4.50
2023-01-19T22:24:57.879Z,4.47
2023-01-19T22:27:26.328Z,4.10
2023-01-19T22:29:54.847Z,4.70
2023-01-19T22:32:23.318Z,4.20
2023-01-19T22:34:53.190Z,3.70
2023-01-19T22:37:21.669Z,4.07
2023-01-19T22:39:50.116Z,3.73
2023-01-19T22:42:18.573Z,4.00
2023-01-19T22:44:47.064Z,4.40
2023-01-19T22:47:15.565Z,4.27
2023-01-19T22:49:44.188Z,4.53
2023-01-19T22:52:14.053Z,4.30
2023-01-19T22:54:42.515Z,3.53
2023-01-19T22:57:11.931Z,4.40
2023-01-19T22:59:40.424Z,4.20
2023-01-19T23:02:09.284Z,4.13
2023-01-19T23:04:39.480Z,3.93
2023-01-19T23:07:09.378Z,4.43
2023-01-19T23:09:39.220Z,4.03
2023-01-19T23:12:07.729Z,4.63
2023-01-19T23:14:36.378Z,4.33
2023-01-19T23:17:04.835Z,4.63
2023-01-19T23:19:33.442Z,4.23
2023-01-19T23:22:01.912Z,4.90
2023-01-19T23:24:30.545Z,4.97
2023-01-19T23:27:01.563Z,4.60
2023-01-19T23:29:30.136Z,5.17
2023-01-19T23:31:58.569Z,4.93
2023-01-19T23:34:27.011Z,5.07
2023-01-19T23:36:55.493Z,4.33
2023-01-19T23:39:24.292Z,4.57
2023-01-19T23:41:52.797Z,4.70
2023-01-19T23:44:22.716Z,4.90
2023-01-19T23:46:51.123Z,4.30
2023-01-19T23:49:19.734Z,4.40
2023-01-19T23:51:48.186Z,4.50
2023-01-19T23:54:16.628Z,5.00
2023-01-19T23:56:45.099Z,4.60
2023-01-19T23:59:14.547Z,4.13
